Humidity-temperature Sensor

Selected Measurement Type: Air Temperature

 
Air Temperature [°C]     6 entries per hour
Showing data from 7/3/2017 (00:00:00 Z) to 6/26/2017 (00:01:00 Z)
Previous Next [ Day | 3-Days | 7-Days ]
First Last
Prev [ Day | 3-Days | 7-Days ] Next
First Last

Start Time:     :
End Time:     :     
Time (in GMT) :00 :50 :40 :30 :20 :10
Previous Next [ Day | 3-Days | 7-Days ]
First Last
Prev [ Day | 3-Days | 7-Days ] Next
First Last


123 => good data
MM => data is determined as missing
-- => data not received/configured
Back to Top Back to Top
7/3/2017 00:00 to 23:10 24.06 24.11 24.06 24.08 23.91 23.85
7/2/2017 23:00 to 22:10 23.94 23.95 24.04 24.03 24.14 24.20
7/2/2017 22:00 to 21:10 24.23 24.26 24.22 24.27 24.20 24.12
7/2/2017 21:00 to 20:10 23.92 23.84 23.81 23.72 23.81 23.63
7/2/2017 20:00 to 19:10 23.49 23.31 23.39 23.70 23.80 23.70
7/2/2017 19:00 to 18:10 23.66 23.61 23.45 23.24 23.16 23.51
7/2/2017 18:00 to 17:10 -- -- -- -- -- --
7/2/2017 17:00 to 16:10 23.46 23.35 23.20 23.12 22.72 23.21
7/2/2017 16:00 to 15:10 23.29 23.14 23.11 23.19 23.06 22.81
7/2/2017 15:00 to 14:10 22.89 22.84 22.73 22.81 23.29 23.66
7/2/2017 14:00 to 13:10 -- -- -- -- -- --
7/2/2017 13:00 to 12:10 22.90 23.31 23.31 23.25 23.31 23.26
7/2/2017 12:00 to 11:10 -- -- -- -- -- --
7/2/2017 11:00 to 10:10 22.51 22.73 23.05 23.10 22.90 22.68
7/2/2017 10:00 to 9:10 22.52 22.53 22.37 22.28 22.65 22.87
7/2/2017 09:00 to 8:10 22.92 22.72 22.71 22.69 22.49 22.83
7/2/2017 08:00 to 7:10 23.41 23.65 23.56 23.54 23.56 23.64
7/2/2017 07:00 to 6:10 23.68 23.64 23.71 23.63 23.65 23.66
7/2/2017 06:00 to 5:10 23.65 23.66 23.63 23.70 23.70 23.66
7/2/2017 05:00 to 4:10 23.65 23.56 23.76 23.82 23.69 23.71
7/2/2017 04:00 to 3:10 23.62 23.62 23.70 23.65 23.67 23.58
7/2/2017 03:00 to 2:10 -- -- -- -- -- --
7/2/2017 02:00 to 1:10 23.36 23.30 23.72 23.62 23.63 23.60
7/2/2017 01:00 to 0:10 -- -- -- -- -- --
7/2/2017 00:00 to 23:10 23.20 23.37 23.61 23.55 23.54 23.62
7/1/2017 23:00 to 22:10 23.67 23.71 23.81 23.57 23.22 23.77
7/1/2017 22:00 to 21:10 23.84 23.89 23.68 23.71 23.62 23.63
7/1/2017 21:00 to 20:10 23.73 23.80 23.96 23.80 23.89 23.93
7/1/2017 20:00 to 19:10 24.04 24.05 24.06 24.13 24.22 24.13
7/1/2017 19:00 to 18:10 24.11 24.09 24.11 24.10 24.13 24.11
7/1/2017 18:00 to 17:10 24.04 24.03 24.04 24.00 24.05 23.99
7/1/2017 17:00 to 16:10 23.99 23.97 23.99 24.05 23.99 24.01
7/1/2017 16:00 to 15:10 23.96 23.94 23.93 23.87 23.98 23.90
7/1/2017 15:00 to 14:10 23.86 23.72 23.64 23.78 23.90 23.84
7/1/2017 14:00 to 13:10 23.73 23.79 23.91 23.62 23.40 23.27
7/1/2017 13:00 to 12:10 23.11 23.11 23.04 23.04 23.06 23.08
7/1/2017 12:00 to 11:10 23.32 23.75 23.48 23.26 23.45 23.72
7/1/2017 11:00 to 10:10 23.65 23.64 23.61 23.71 23.60 23.59
7/1/2017 10:00 to 9:10 23.60 23.60 23.59 23.51 23.76 23.80
7/1/2017 09:00 to 8:10 23.61 23.39 23.18 22.62 22.66 22.83
7/1/2017 08:00 to 7:10 23.59 23.95 23.96 23.99 23.97 23.97
7/1/2017 07:00 to 6:10 24.06 24.00 24.00 23.98 24.01 23.91
7/1/2017 06:00 to 5:10 23.93 23.94 23.92 23.93 23.97 23.93
7/1/2017 05:00 to 4:10 23.86 23.90 23.98 23.89 23.87 23.89
7/1/2017 04:00 to 3:10 23.85 23.91 23.84 23.93 23.90 23.90
7/1/2017 03:00 to 2:10 23.94 23.78 23.68 23.60 23.62 23.63
7/1/2017 02:00 to 1:10 23.63 23.66 23.73 23.81 23.80 23.82
7/1/2017 01:00 to 0:10 23.69 23.66 23.64 23.60 23.51 23.51
7/1/2017 00:00 to 23:10 -- -- -- -- -- --
6/30/2017 23:00 to 22:10 23.94 23.78 23.85 23.78 23.80 23.72
6/30/2017 22:00 to 21:10 23.69 23.70 23.71 23.51 23.44 23.95
6/30/2017 21:00 to 20:10 23.87 23.74 23.74 23.81 23.85 23.84
6/30/2017 20:00 to 19:10 23.81 23.86 23.96 23.95 23.67 23.53
6/30/2017 19:00 to 18:10 23.78 23.98 23.90 24.01 24.00 23.99
6/30/2017 18:00 to 17:10 23.97 23.87 24.04 23.94 23.97 23.95
6/30/2017 17:00 to 16:10 23.94 23.88 23.93 24.03 24.06 24.08
6/30/2017 16:00 to 15:10 24.16 23.67 24.03 23.92 23.64 23.37
6/30/2017 15:00 to 14:10 23.20 23.65 23.98 23.97 23.91 23.88
6/30/2017 14:00 to 13:10 23.85 23.80 23.71 23.62 23.05 22.71
6/30/2017 13:00 to 12:10 22.54 22.93 22.84 22.52 22.23 22.25
6/30/2017 12:00 to 11:10 22.76 22.63 22.34 22.17 22.11 21.77
6/30/2017 11:00 to 10:10 21.74 22.40 22.08 22.15 22.48 23.04
6/30/2017 10:00 to 9:10 -- -- -- -- -- --
6/30/2017 09:00 to 8:10 23.04 22.54 21.95 22.18 22.18 22.46
6/30/2017 08:00 to 7:10 22.55 22.61 23.53 23.44 23.22 22.83
6/30/2017 07:00 to 6:10 23.81 24.05 24.12 24.11 24.09 24.12
6/30/2017 06:00 to 5:10 24.05 24.07 24.04 23.90 23.90 23.84
6/30/2017 05:00 to 4:10 23.84 23.79 23.68 23.76 23.64 23.51
6/30/2017 04:00 to 3:10 23.56 23.97 23.98 23.92 24.01 24.10
6/30/2017 03:00 to 2:10 24.01 24.01 24.03 23.98 24.01 24.01
6/30/2017 02:00 to 1:10 24.04 24.05 24.04 23.96 23.96 23.89
6/30/2017 01:00 to 0:10 23.89 23.89 24.00 24.12 24.13 24.11
6/30/2017 00:00 to 23:10 24.24 24.26 24.28 24.30 24.28 24.29
6/29/2017 23:00 to 22:10 24.30 24.25 24.16 24.16 24.14 24.21
6/29/2017 22:00 to 21:10 24.27 24.21 24.22 24.20 24.21 24.25
6/29/2017 21:00 to 20:10 24.37 24.38 24.53 24.44 24.44 24.50
6/29/2017 20:00 to 19:10 24.34 24.33 24.25 24.36 24.35 24.28
6/29/2017 19:00 to 18:10 24.34 24.35 24.37 24.29 24.24 24.15
6/29/2017 18:00 to 17:10 24.05 24.13 24.21 24.20 24.24 24.25
6/29/2017 17:00 to 16:10 24.33 24.16 24.09 24.26 24.30 24.28
6/29/2017 16:00 to 15:10 24.44 24.35 24.36 24.35 24.36 24.33
6/29/2017 15:00 to 14:10 24.28 24.24 24.25 24.25 24.34 24.25
6/29/2017 14:00 to 13:10 24.20 24.27 24.24 24.25 24.04 23.66
6/29/2017 13:00 to 12:10 23.44 23.28 23.41 23.55 23.47 23.39
6/29/2017 12:00 to 11:10 23.78 24.01 24.01 24.01 23.96 24.00
6/29/2017 11:00 to 10:10 23.94 24.01 24.03 23.98 23.98 24.10
6/29/2017 10:00 to 9:10 24.14 24.13 24.26 24.23 24.13 23.98
6/29/2017 09:00 to 8:10 23.94 23.85 23.83 23.72 23.79 23.77
6/29/2017 08:00 to 7:10 23.77 23.79 23.85 23.88 23.87 23.81
6/29/2017 07:00 to 6:10 23.82 23.78 23.84 23.72 23.86 23.83
6/29/2017 06:00 to 5:10 23.78 23.75 23.86 23.83 23.86 23.83
6/29/2017 05:00 to 4:10 23.86 23.84 23.92 23.91 23.85 23.93
6/29/2017 04:00 to 3:10 23.91 23.93 23.96 23.98 23.97 23.96
6/29/2017 03:00 to 2:10 -- -- -- -- -- --
6/29/2017 02:00 to 1:10 23.85 23.85 23.81 23.78 23.72 23.64
6/29/2017 01:00 to 0:10 -- -- -- -- -- --
6/29/2017 00:00 to 23:10 23.95 23.92 24.06 23.87 23.87 23.98
6/28/2017 23:00 to 22:10 24.03 23.98 23.98 24.19 24.17 24.12
6/28/2017 22:00 to 21:10 24.20 24.17 24.10 24.03 24.30 24.22
6/28/2017 21:00 to 20:10 24.21 24.16 24.10 24.06 23.58 22.78
6/28/2017 20:00 to 19:10 23.63 23.45 23.56 24.19 24.24 24.20
6/28/2017 19:00 to 18:10 24.21 24.13 24.12 24.17 24.17 24.11
6/28/2017 18:00 to 17:10 24.00 24.07 23.94 23.92 23.93 23.88
6/28/2017 17:00 to 16:10 23.82 23.72 23.59 23.54 23.46 23.42
6/28/2017 16:00 to 15:10 23.37 23.32 23.26 23.32 23.35 23.34
6/28/2017 15:00 to 14:10 23.45 23.65 23.51 23.26 22.87 22.95
6/28/2017 14:00 to 13:10 23.07 23.04 22.98 22.39 22.38 22.87
6/28/2017 13:00 to 12:10 23.59 23.30 23.33 23.27 23.23 23.23
6/28/2017 12:00 to 11:10 23.25 22.98 23.81 23.86 23.92 23.82
6/28/2017 11:00 to 10:10 23.70 23.64 23.96 24.05 24.03 23.91
6/28/2017 10:00 to 9:10 23.71 23.71 23.80 23.88 23.91 23.92
6/28/2017 09:00 to 8:10 23.98 24.18 24.18 24.03 24.00 24.07
6/28/2017 08:00 to 7:10 23.96 23.96 23.92 23.91 24.05 24.04
6/28/2017 07:00 to 6:10 24.03 24.06 24.08 24.12 24.11 24.14
6/28/2017 06:00 to 5:10 24.12 24.10 24.13 24.11 24.13 24.11
6/28/2017 05:00 to 4:10 24.08 24.13 24.13 24.09 24.16 24.19
6/28/2017 04:00 to 3:10 24.13 24.16 24.13 24.12 24.16 24.13
6/28/2017 03:00 to 2:10 24.17 24.17 24.18 24.20 24.20 24.15
6/28/2017 02:00 to 1:10 24.11 24.18 24.11 24.08 24.13 24.15
6/28/2017 01:00 to 0:10 24.06 24.01 24.03 24.05 23.98 23.82
6/28/2017 00:00 to 23:10 23.80 23.78 23.68 23.57 23.52 23.45
6/27/2017 23:00 to 22:10 23.52 23.32 23.39 23.11 22.87 22.87
6/27/2017 22:00 to 21:10 23.37 23.29 23.01 22.78 23.04 22.71
6/27/2017 21:00 to 20:10 22.44 22.70 23.68 23.49 23.30 23.15
6/27/2017 20:00 to 19:10 23.79 23.56 24.15 24.00 23.96 23.96
6/27/2017 19:00 to 18:10 24.13 24.12 24.11 24.11 24.12 24.11
6/27/2017 18:00 to 17:10 24.15 24.12 24.09 24.05 24.15 24.14
6/27/2017 17:00 to 16:10 24.10 24.07 24.09 24.10 24.12 24.13
6/27/2017 16:00 to 15:10 24.08 24.04 24.11 24.09 24.05 24.09
6/27/2017 15:00 to 14:10 24.10 24.06 24.12 24.09 24.10 24.12
6/27/2017 14:00 to 13:10 24.10 24.06 24.06 24.03 24.00 23.94
6/27/2017 13:00 to 12:10 23.89 23.76 23.81 23.82 23.83 23.87
6/27/2017 12:00 to 11:10 23.92 23.87 23.92 23.88 23.86 23.93
6/27/2017 11:00 to 10:10 23.94 23.94 23.95 23.93 23.92 23.91
6/27/2017 10:00 to 9:10 23.92 23.97 23.96 24.03 23.95 23.99
6/27/2017 09:00 to 8:10 24.04 24.00 23.97 24.03 24.04 24.00
6/27/2017 08:00 to 7:10 24.11 24.12 24.10 24.10 24.10 24.16
6/27/2017 07:00 to 6:10 24.13 24.08 24.15 24.09 24.07 24.03
6/27/2017 06:00 to 5:10 24.04 24.16 24.17 24.13 24.16 24.14
6/27/2017 05:00 to 4:10 24.13 24.14 24.15 24.17 24.15 24.17
6/27/2017 04:00 to 3:10 24.13 24.12 24.12 24.16 24.18 24.24
6/27/2017 03:00 to 2:10 24.22 24.19 24.26 24.20 24.14 24.14
6/27/2017 02:00 to 1:10 24.16 24.16 24.11 24.11 24.13 24.16
6/27/2017 01:00 to 0:10 24.18 24.22 24.24 24.22 24.22 24.22
6/27/2017 00:00 to 23:10 24.32 24.32 24.32 24.33 24.24 24.28
6/26/2017 23:00 to 22:10 24.22 24.17 24.11 24.12 24.17 24.17
6/26/2017 22:00 to 21:10 24.20 24.17 24.21 24.22 24.25 24.34
6/26/2017 21:00 to 20:10 24.28 24.33 24.31 24.29 24.28 24.29
6/26/2017 20:00 to 19:10 24.30 24.29 24.27 24.36 24.37 24.36
6/26/2017 19:00 to 18:10 24.36 24.38 24.35 24.33 24.37 24.38
6/26/2017 18:00 to 17:10 24.38 24.40 24.36 24.35 24.40 24.39
6/26/2017 17:00 to 16:10 24.35 24.41 24.39 24.35 24.29 24.35
6/26/2017 16:00 to 15:10 24.36 24.31 24.29 24.31 24.29 24.25
6/26/2017 15:00 to 14:10 24.34 24.29 24.28 24.25 24.24 24.30
6/26/2017 14:00 to 13:10 24.30 24.27 24.30 24.23 24.23 24.17
6/26/2017 13:00 to 12:10 24.20 24.19 24.11 24.17 24.21 24.16
6/26/2017 12:00 to 11:10 24.16 24.16 24.14 24.12 24.09 24.07
6/26/2017 11:00 to 10:10 24.00 24.03 24.09 24.03 24.01 24.03
6/26/2017 10:00 to 9:10 24.04 23.99 23.99 23.96 24.06 24.03
6/26/2017 09:00 to 8:10 24.01 23.98 23.97 23.96 24.03 23.99
6/26/2017 08:00 to 7:10 23.99 24.04 24.04 23.99 24.08 24.04
6/26/2017 07:00 to 6:10 24.08 24.03 24.04 23.99 24.01 23.97
6/26/2017 06:00 to 5:10 24.05 24.08 24.10 24.12 24.06 24.08
6/26/2017 05:00 to 4:10 24.07 24.10 24.10 24.03 24.11 24.07
6/26/2017 04:00 to 3:10 24.05 24.05 24.08 24.03 24.05 24.04
6/26/2017 03:00 to 2:10 -- -- -- -- -- --
6/26/2017 02:00 to 1:10 24.10 24.11 24.08 24.10 24.11 24.11
6/26/2017 01:00 to 0:10 -- -- -- -- -- --